Time;durP1;ratioP1;P1;durP2;ratioP2;P2;SDS_P1;SDS_P2;PMS_P1;PMS_P2;Temp;Humidity;BMP_temperature;BMP_pressure;BME280_temperature;BME280_humidity;BME280_pressure;Samples;Min_cycle;Max_cycle;Signal;HPM_P1;HPM_P2
2024/02/16 00:02:06;;;;;;;9.02;5.50;;;7.10;60.20;;;;;;5072473;28;20198;-68
2024/02/16 00:04:33;;;;;;;8.15;5.05;;;7.10;60.60;;;;;;5072574;28;20198;-68
2024/02/16 00:07:01;;;;;;;7.93;4.57;;;7.10;61.60;;;;;;5072034;28;20214;-67
2024/02/16 00:09:29;;;;;;;5.38;3.78;;;7.10;62.30;;;;;;5082066;28;20224;-68
2024/02/16 00:11:56;;;;;;;6.13;3.75;;;7.20;62.10;;;;;;5092417;28;20194;-68
2024/02/16 00:14:23;;;;;;;8.60;4.47;;;7.20;61.60;;;;;;5094678;28;20193;-68
2024/02/16 00:16:50;;;;;;;8.30;5.00;;;7.00;61.30;;;;;;5095921;28;20201;-68
2024/02/16 00:19:17;;;;;;;8.40;4.47;;;7.00;61.70;;;;;;5096070;28;20216;-67
2024/02/16 00:21:44;;;;;;;5.97;4.07;;;7.00;62.20;;;;;;5096255;28;20280;-68
2024/02/16 00:24:12;;;;;;;6.88;4.60;;;6.90;62.80;;;;;;5095557;28;20236;-68
2024/02/16 00:26:40;;;;;;;7.35;4.68;;;7.00;63.60;;;;;;5096440;28;20193;-68
2024/02/16 00:29:07;;;;;;;7.20;4.78;;;7.00;63.00;;;;;;5096658;28;20556;-68
2024/02/16 00:31:34;;;;;;;6.80;3.95;;;7.10;62.80;;;;;;5096072;28;20189;-68
2024/02/16 00:34:01;;;;;;;6.65;4.20;;;7.10;63.30;;;;;;5096379;28;20266;-67
2024/02/16 00:36:30;;;;;;;5.90;4.10;;;7.00;63.70;;;;;;5087853;28;20182;-68
2024/02/16 00:38:57;;;;;;;5.72;4.05;;;7.00;64.30;;;;;;5075646;28;20718;-67
2024/02/16 00:41:25;;;;;;;5.38;3.95;;;7.00;63.90;;;;;;5091936;28;20221;-67
2024/02/16 00:43:53;;;;;;;4.40;3.50;;;7.00;63.40;;;;;;5096540;28;20210;-67
2024/02/16 00:46:22;;;;;;;5.68;4.00;;;6.90;62.90;;;;;;5095818;28;20711;-67
2024/02/16 00:48:50;;;;;;;5.70;4.00;;;6.90;63.30;;;;;;5095728;28;20214;-68
2024/02/16 00:51:17;;;;;;;6.28;4.95;;;6.90;63.40;;;;;;5087177;28;20194;-68
2024/02/16 00:53:44;;;;;;;6.68;4.43;;;6.90;63.10;;;;;;5075865;28;20190;-67
2024/02/16 00:56:11;;;;;;;6.47;4.00;;;6.90;63.20;;;;;;5075096;28;20244;-68
2024/02/16 00:58:42;;;;;;;5.05;3.47;;;6.80;62.50;;;;;;5075395;28;20194;-68
2024/02/16 01:01:12;;;;;;;8.35;4.72;;;6.80;62.40;;;;;;5075688;28;20274;-68
2024/02/16 01:03:39;;;;;;;7.15;4.88;;;6.70;62.80;;;;;;5075268;28;20224;-68
2024/02/16 01:06:08;;;;;;;7.00;4.22;;;6.70;62.80;;;;;;5083908;28;20213;-68
2024/02/16 01:08:35;;;;;;;5.90;4.00;;;6.70;62.80;;;;;;5095649;28;20213;-68
2024/02/16 01:11:02;;;;;;;8.40;4.63;;;6.60;63.30;;;;;;5095458;28;20280;-68
2024/02/16 01:13:29;;;;;;;7.85;5.18;;;6.70;63.90;;;;;;5095422;28;20189;-68
2024/02/16 01:15:56;;;;;;;9.23;5.20;;;6.70;64.10;;;;;;5095113;28;20723;-68
2024/02/16 01:18:25;;;;;;;5.50;4.30;;;6.70;64.10;;;;;;5095525;28;20197;-67
2024/02/16 01:20:52;;;;;;;7.88;4.03;;;6.70;63.30;;;;;;5095008;28;20272;-68
2024/02/16 01:23:19;;;;;;;7.55;4.20;;;6.80;63.10;;;;;;5095004;28;20189;-67
2024/02/16 01:25:46;;;;;;;6.82;4.43;;;6.80;62.80;;;;;;5095246;28;20280;-67
2024/02/16 01:28:13;;;;;;;7.38;4.97;;;6.80;62.40;;;;;;5094920;28;20205;-67
2024/02/16 01:30:41;;;;;;;5.80;4.10;;;6.70;62.40;;;;;;5094923;28;20197;-68
2024/02/16 01:33:09;;;;;;;7.53;5.30;;;6.60;63.00;;;;;;5094721;28;20280;-68
2024/02/16 01:35:38;;;;;;;5.97;3.90;;;6.60;62.80;;;;;;5095314;28;20353;-68
2024/02/16 01:38:05;;;;;;;5.78;4.15;;;6.70;62.90;;;;;;5095224;28;20285;-68
2024/02/16 01:40:32;;;;;;;7.57;4.05;;;6.70;62.80;;;;;;5083974;28;20588;-68
2024/02/16 01:43:00;;;;;;;8.18;4.88;;;6.70;62.90;;;;;;5074795;28;20305;-68
2024/02/16 01:45:28;;;;;;;6.82;4.68;;;6.70;63.40;;;;;;5075222;28;20194;-68
2024/02/16 01:47:56;;;;;;;7.60;4.30;;;6.70;63.40;;;;;;5074321;28;20210;-68
2024/02/16 01:50:23;;;;;;;6.30;4.07;;;6.60;64.10;;;;;;5074670;28;20240;-67
2024/02/16 01:52:52;;;;;;;6.85;4.60;;;6.60;64.70;;;;;;5074663;28;20230;-68
2024/02/16 01:55:21;;;;;;;7.55;4.70;;;6.60;65.00;;;;;;5085126;28;20185;-68
2024/02/16 01:57:49;;;;;;;8.43;5.05;;;6.70;65.20;;;;;;5094844;28;20639;-68
2024/02/16 02:00:17;;;;;;;9.18;4.97;;;6.70;65.30;;;;;;5094420;28;20189;-68
2024/02/16 02:02:46;;;;;;;7.53;5.30;;;6.70;65.60;;;;;;5094428;28;20234;-68
2024/02/16 02:05:14;;;;;;;7.90;4.97;;;6.80;65.90;;;;;;5094538;28;20266;-67
2024/02/16 02:07:46;;;;;;;9.00;4.38;;;6.80;65.60;;;;;;5078179;28;20733;-68
2024/02/16 02:10:14;;;;;;;7.85;4.28;;;6.90;64.90;;;;;;5074288;28;20546;-68
2024/02/16 02:12:42;;;;;;;9.35;4.40;;;6.90;64.80;;;;;;5074197;28;20194;-68
2024/02/16 02:15:10;;;;;;;7.53;4.10;;;6.90;65.20;;;;;;5074179;28;20194;-68
2024/02/16 02:17:38;;;;;;;6.63;3.88;;;7.00;64.80;;;;;;5073890;28;20670;-68
2024/02/16 02:20:09;;;;;;;5.78;3.45;;;7.00;63.90;;;;;;5074004;28;20204;-68
2024/02/16 02:22:38;;;;;;;5.22;3.80;;;7.00;63.90;;;;;;5093839;28;20189;-68
2024/02/16 02:25:06;;;;;;;7.50;3.90;;;7.00;63.70;;;;;;5094264;28;20246;-68
2024/02/16 02:27:33;;;;;;;5.70;3.00;;;6.90;63.30;;;;;;5094246;28;20270;-68
2024/02/16 02:30:00;;;;;;;6.13;3.67;;;6.90;63.40;;;;;;5093868;28;20189;-68
2024/02/16 02:32:28;;;;;;;7.70;4.10;;;6.90;63.30;;;;;;5077697;28;20197;-68
2024/02/16 02:34:55;;;;;;;5.00;3.15;;;6.90;62.90;;;;;;5073437;28;20190;-68
2024/02/16 02:37:22;;;;;;;8.10;4.55;;;6.90;63.00;;;;;;5073091;28;20661;-68
2024/02/16 02:39:51;;;;;;;7.28;4.38;;;6.90;63.40;;;;;;5073583;28;20202;-68
2024/02/16 02:42:18;;;;;;;7.82;3.90;;;6.90;63.90;;;;;;5073964;28;20563;-68
2024/02/16 02:44:49;;;;;;;6.75;4.13;;;6.90;64.20;;;;;;5073787;28;20273;-68
2024/02/16 02:47:17;;;;;;;6.70;4.13;;;6.90;64.60;;;;;;5073476;28;20597;-68
2024/02/16 02:49:45;;;;;;;5.60;3.17;;;6.90;63.90;;;;;;5073463;28;20197;-68
2024/02/16 02:52:12;;;;;;;6.07;3.50;;;6.90;64.70;;;;;;5073537;28;20190;-68
2024/02/16 02:54:39;;;;;;;7.35;3.38;;;6.80;64.90;;;;;;5073043;28;20201;-68
2024/02/16 02:57:08;;;;;;;6.88;4.13;;;6.90;65.20;;;;;;5073694;28;20217;-68
2024/02/16 02:59:35;;;;;;;5.07;3.08;;;6.90;64.90;;;;;;5081397;28;20182;-68
2024/02/16 03:02:02;;;;;;;6.20;3.33;;;6.90;64.60;;;;;;5093793;28;20217;-69
2024/02/16 03:04:29;;;;;;;4.95;3.70;;;6.90;64.40;;;;;;5076260;28;20285;-68
2024/02/16 03:06:55;;;;;;;7.05;3.67;;;6.90;64.30;;;;;;5073394;28;20257;-68
2024/02/16 03:09:23;;;;;;;8.57;4.25;;;6.90;64.30;;;;;;5073087;28;20305;-68
2024/02/16 03:11:50;;;;;;;6.18;2.80;;;7.00;63.30;;;;;;5073237;28;20232;-68
2024/02/16 03:14:19;;;;;;;6.38;3.15;;;6.90;62.80;;;;;;5073242;28;20603;-68
2024/02/16 03:16:46;;;;;;;6.00;3.70;;;6.90;63.30;;;;;;5073587;28;20218;-68
2024/02/16 03:19:13;;;;;;;7.00;4.22;;;6.90;63.90;;;;;;5073149;28;20233;-68
2024/02/16 03:21:40;;;;;;;5.70;3.25;;;6.80;64.20;;;;;;5073459;28;20193;-68
2024/02/16 03:24:07;;;;;;;7.88;3.50;;;6.80;64.60;;;;;;5072926;28;20240;-68
2024/02/16 03:26:35;;;;;;;8.00;4.80;;;6.80;64.90;;;;;;5073332;28;20194;-68
2024/02/16 03:29:03;;;;;;;6.57;3.53;;;6.80;65.00;;;;;;5093306;28;20305;-68
2024/02/16 03:31:33;;;;;;;5.43;3.75;;;6.90;65.20;;;;;;5093511;28;20221;-68
2024/02/16 03:34:00;;;;;;;6.30;3.83;;;7.00;64.90;;;;;;5093559;28;20239;-68
2024/02/16 03:36:27;;;;;;;6.00;3.40;;;6.90;65.00;;;;;;5093445;28;20202;-68
2024/02/16 03:38:54;;;;;;;7.00;3.95;;;7.00;65.10;;;;;;5093499;28;20231;-68
2024/02/16 03:41:23;;;;;;;8.20;3.60;;;7.00;64.50;;;;;;5093215;28;20217;-68
2024/02/16 03:43:54;;;;;;;10.80;5.13;;;6.90;64.90;;;;;;5053250;28;20201;-68
2024/02/16 03:46:21;;;;;;;6.32;4.00;;;6.90;65.10;;;;;;5052925;28;20236;-68
2024/02/16 03:48:50;;;;;;;7.40;4.93;;;6.90;65.80;;;;;;5056498;28;20222;-68
2024/02/16 03:51:17;;;;;;;6.70;3.47;;;7.00;65.60;;;;;;5056994;28;20187;-68
2024/02/16 03:53:47;;;;;;;5.60;3.65;;;7.00;65.90;;;;;;5056583;28;20194;-68
2024/02/16 03:56:20;;;;;;;7.63;5.00;;;7.00;66.10;;;;;;5072601;28;20228;-68
2024/02/16 03:58:47;;;;;;;6.55;3.75;;;7.00;65.90;;;;;;5076815;28;20186;-68
2024/02/16 04:01:16;;;;;;;6.70;3.85;;;7.00;65.40;;;;;;5076825;28;20301;-68
2024/02/16 04:03:43;;;;;;;7.63;3.95;;;7.00;65.40;;;;;;5076615;28;20263;-68
2024/02/16 04:06:12;;;;;;;6.57;3.58;;;7.00;65.50;;;;;;5076772;28;20589;-68
2024/02/16 04:08:39;;;;;;;6.30;3.10;;;7.00;65.30;;;;;;5076223;28;20305;-68
2024/02/16 04:11:06;;;;;;;3.80;3.00;;;7.10;65.40;;;;;;5093502;28;20259;-68
2024/02/16 04:13:33;;;;;;;6.28;3.83;;;7.10;65.30;;;;;;5096350;28;20240;-68
2024/02/16 04:16:00;;;;;;;3.90;2.85;;;7.10;65.30;;;;;;5096722;28;20280;-68
2024/02/16 04:18:27;;;;;;;5.60;3.95;;;7.10;65.30;;;;;;5096821;28;20186;-68
2024/02/16 04:20:54;;;;;;;6.68;4.38;;;7.10;65.50;;;;;;5096234;28;20660;-68
2024/02/16 04:23:23;;;;;;;5.88;3.67;;;7.10;65.70;;;;;;5086714;28;20182;-68
2024/02/16 04:25:49;;;;;;;5.25;3.97;;;7.10;66.00;;;;;;5076018;28;20195;-68
2024/02/16 04:28:18;;;;;;;6.70;3.58;;;7.10;66.40;;;;;;5076184;28;20301;-67
2024/02/16 04:30:45;;;;;;;5.47;3.20;;;7.20;66.10;;;;;;5075941;28;20194;-67
2024/02/16 04:33:12;;;;;;;6.80;3.40;;;7.20;66.10;;;;;;5075924;28;20730;-68
2024/02/16 04:35:39;;;;;;;7.20;3.45;;;7.20;66.20;;;;;;5075884;28;20198;-68
2024/02/16 04:38:06;;;;;;;8.18;4.15;;;7.20;66.50;;;;;;5084553;28;20246;-68
2024/02/16 04:40:38;;;;;;;6.18;3.00;;;7.30;66.60;;;;;;5096024;28;20189;-68
2024/02/16 04:43:05;;;;;;;5.30;3.00;;;7.30;66.10;;;;;;5095795;28;20222;-68
2024/02/16 04:45:32;;;;;;;4.70;3.25;;;7.30;65.80;;;;;;5095958;28;20288;-68
2024/02/16 04:48:03;;;;;;;6.38;2.95;;;7.30;66.20;;;;;;5096143;28;20277;-68
2024/02/16 04:50:30;;;;;;;4.70;2.95;;;7.30;66.50;;;;;;5095364;28;20204;-68
2024/02/16 04:52:57;;;;;;;4.32;2.70;;;7.30;66.70;;;;;;5095819;28;20190;-68
2024/02/16 04:55:24;;;;;;;6.07;4.28;;;7.30;66.30;;;;;;5096038;28;20220;-68
2024/02/16 04:57:52;;;;;;;5.47;3.50;;;7.30;66.40;;;;;;5095612;28;20276;-68
2024/02/16 05:00:20;;;;;;;7.05;3.67;;;7.30;66.50;;;;;;5095206;28;20236;-68
2024/02/16 05:02:47;;;;;;;4.57;3.10;;;7.30;66.90;;;;;;5095847;28;20262;-69
2024/02/16 05:05:15;;;;;;;6.60;3.75;;;7.30;66.70;;;;;;5095250;28;20193;-68
2024/02/16 05:07:43;;;;;;;5.72;3.65;;;7.40;66.30;;;;;;5095450;28;20189;-68
2024/02/16 05:10:10;;;;;;;6.88;4.82;;;7.40;66.00;;;;;;5095341;28;20296;-68
2024/02/16 05:12:38;;;;;;;4.55;2.78;;;7.40;66.40;;;;;;5095668;28;20193;-68
2024/02/16 05:15:07;;;;;;;5.25;3.30;;;7.30;66.40;;;;;;5095416;28;20543;-68
2024/02/16 05:17:34;;;;;;;5.10;3.70;;;7.40;66.70;;;;;;5095590;28;20274;-68
2024/02/16 05:20:01;;;;;;;11.27;4.13;;;7.30;66.70;;;;;;5095054;28;20280;-68
2024/02/16 05:22:27;;;;;;;4.40;2.55;;;7.30;67.00;;;;;;5095499;28;20201;-68
2024/02/16 05:24:56;;;;;;;4.10;3.10;;;7.30;67.10;;;;;;5095144;28;20228;-68
2024/02/16 05:27:23;;;;;;;5.93;3.58;;;7.40;67.20;;;;;;5094880;28;20251;-68
2024/02/16 05:29:50;;;;;;;3.67;2.50;;;7.40;66.70;;;;;;5094925;28;20300;-68
2024/02/16 05:32:19;;;;;;;4.45;2.63;;;7.40;67.10;;;;;;5094975;28;20281;-68
2024/02/16 05:34:46;;;;;;;4.63;3.08;;;7.40;66.80;;;;;;5094391;28;20185;-68
2024/02/16 05:37:15;;;;;;;7.07;3.95;;;7.40;66.80;;;;;;5094910;28;20288;-68
2024/02/16 05:39:53;;;;;;;4.75;2.75;;;7.40;66.90;;;;;;5095462;28;20242;-68
2024/02/16 05:42:22;;;;;;;5.75;3.90;;;7.40;66.40;;;;;;5094612;28;20219;-69
2024/02/16 05:44:49;;;;;;;5.30;2.25;;;7.40;66.30;;;;;;5094986;28;20194;-68
2024/02/16 05:47:16;;;;;;;4.22;2.28;;;7.40;66.10;;;;;;5094146;28;20192;-68
2024/02/16 05:49:47;;;;;;;5.35;3.65;;;7.40;65.70;;;;;;5095036;28;20299;-68
2024/02/16 05:52:20;;;;;;;7.85;4.00;;;7.50;66.00;;;;;;5095049;28;20599;-68
2024/02/16 05:54:49;;;;;;;10.70;6.15;;;7.50;65.80;;;;;;5094963;28;20578;-68
2024/02/16 05:57:18;;;;;;;9.98;6.40;;;7.50;66.00;;;;;;5075507;28;20240;-68
2024/02/16 05:59:45;;;;;;;11.15;6.53;;;7.50;66.00;;;;;;5074554;28;20612;-68
2024/02/16 06:02:12;;;;;;;10.82;6.50;;;7.50;66.80;;;;;;5074435;28;20672;-68
2024/02/16 06:04:39;;;;;;;11.35;6.80;;;7.40;65.90;;;;;;5074525;28;20315;-68
2024/02/16 06:07:08;;;;;;;7.80;5.18;;;7.40;66.10;;;;;;5074372;28;20221;-68
2024/02/16 06:09:35;;;;;;;10.02;5.55;;;7.30;66.60;;;;;;5074198;28;20602;-67
2024/02/16 06:12:04;;;;;;;6.60;2.97;;;7.40;67.00;;;;;;5091577;28;20264;-69
2024/02/16 06:14:31;;;;;;;6.43;3.85;;;7.40;66.80;;;;;;5093055;28;20236;-68
2024/02/16 06:17:05;;;;;;;5.65;4.03;;;7.40;66.60;;;;;;5074125;28;20243;-70
2024/02/16 06:19:32;;;;;;;5.35;3.63;;;7.40;66.30;;;;;;5073834;28;20251;-67
2024/02/16 06:21:59;;;;;;;7.47;3.13;;;7.40;66.40;;;;;;5073734;28;20652;-69
2024/02/16 06:24:28;;;;;;;7.20;3.85;;;7.50;66.60;;;;;;5071034;28;20606;-67
2024/02/16 06:26:55;;;;;;;7.28;4.25;;;7.50;66.40;;;;;;5073230;28;20189;-67
2024/02/16 06:29:22;;;;;;;5.80;4.30;;;7.50;66.40;;;;;;5084512;28;20237;-68
2024/02/16 06:31:49;;;;;;;7.78;4.47;;;7.40;66.80;;;;;;5093533;28;20232;-67
2024/02/16 06:34:17;;;;;;;5.80;3.90;;;7.40;66.70;;;;;;5079237;28;20190;-67
2024/02/16 06:36:44;;;;;;;5.57;4.30;;;7.40;66.80;;;;;;5080254;28;20554;-68
2024/02/16 06:39:14;;;;;;;8.10;4.10;;;7.40;66.90;;;;;;5093336;28;20193;-68
2024/02/16 06:41:43;;;;;;;8.10;4.35;;;7.40;66.80;;;;;;5072982;28;20324;-67
2024/02/16 06:44:11;;;;;;;4.35;2.65;;;7.40;67.20;;;;;;5073259;28;20277;-69
2024/02/16 06:46:38;;;;;;;4.65;3.58;;;7.40;67.60;;;;;;5073329;28;20231;-67
2024/02/16 06:49:05;;;;;;;4.07;2.58;;;7.50;67.50;;;;;;5087286;28;20259;-69
2024/02/16 06:51:32;;;;;;;4.97;2.53;;;7.50;67.30;;;;;;5093205;28;20640;-67
2024/02/16 06:54:05;;;;;;;5.50;2.55;;;7.50;67.50;;;;;;5077729;28;20637;-67
2024/02/16 06:56:33;;;;;;;6.43;3.30;;;7.50;67.80;;;;;;5077690;28;20186;-67
2024/02/16 06:59:01;;;;;;;5.60;2.63;;;7.60;68.40;;;;;;5086887;28;20738;-67
2024/02/16 07:01:32;;;;;;;9.23;2.70;;;7.70;68.20;;;;;;5093332;28;20284;-69
2024/02/16 07:04:04;;;;;;;4.43;3.00;;;7.80;67.10;;;;;;5092615;28;20259;-67
2024/02/16 07:06:36;;;;;;;4.60;2.92;;;7.90;66.50;;;;;;5073834;28;20586;-68
2024/02/16 07:09:03;;;;;;;4.10;2.50;;;7.90;65.80;;;;;;5072728;28;20202;-68
2024/02/16 07:11:30;;;;;;;7.38;3.25;;;7.90;66.00;;;;;;5073269;28;20240;-68
2024/02/16 07:14:06;;;;;;;4.78;3.47;;;7.90;65.40;;;;;;5073206;28;20233;-68
2024/02/16 07:16:35;;;;;;;5.38;3.17;;;7.90;65.30;;;;;;5071917;28;20251;-67
2024/02/16 07:19:02;;;;;;;6.53;3.97;;;7.90;65.40;;;;;;5083569;28;20192;-67
2024/02/16 07:21:30;;;;;;;5.60;4.38;;;8.00;65.70;;;;;;5072919;28;20236;-67
2024/02/16 07:23:58;;;;;;;10.07;3.55;;;8.00;65.80;;;;;;5076324;28;20281;-67
2024/02/16 07:26:26;;;;;;;6.15;3.90;;;8.00;65.80;;;;;;5076874;28;20218;-67
2024/02/16 07:28:53;;;;;;;6.10;3.70;;;8.10;65.50;;;;;;5076767;28;20182;-68
2024/02/16 07:31:21;;;;;;;6.22;3.53;;;8.10;65.50;;;;;;5076468;28;20182;-67
2024/02/16 07:33:48;;;;;;;6.95;4.13;;;8.10;65.50;;;;;;5076156;28;20190;-67
2024/02/16 07:36:17;;;;;;;7.57;4.70;;;8.10;65.80;;;;;;5076710;28;20190;-67
2024/02/16 07:38:44;;;;;;;7.50;3.90;;;8.20;65.60;;;;;;5076918;28;20294;-67
2024/02/16 07:41:11;;;;;;;6.05;3.42;;;8.30;65.70;;;;;;5076661;28;20257;-67
2024/02/16 07:43:38;;;;;;;6.07;4.57;;;8.50;66.00;;;;;;5076824;28;20175;-68
2024/02/16 07:46:05;;;;;;;7.05;4.47;;;8.50;66.00;;;;;;5073785;28;20190;-67
2024/02/16 07:48:39;;;;;;;6.72;2.95;;;8.60;66.20;;;;;;5073227;28;20198;-68
2024/02/16 07:51:07;;;;;;;5.30;3.55;;;8.80;66.20;;;;;;5076202;28;20244;-68
2024/02/16 07:53:36;;;;;;;4.60;2.95;;;8.90;65.50;;;;;;5076133;28;20277;-68
2024/02/16 07:56:05;;;;;;;4.80;3.05;;;9.00;65.70;;;;;;5093772;28;20272;-67
2024/02/16 07:58:43;;;;;;;4.85;4.20;;;9.10;66.10;;;;;;5096308;28;20250;-67
2024/02/16 08:01:10;;;;;;;4.70;3.47;;;9.20;65.80;;;;;;5089615;28;20224;-67
2024/02/16 08:03:41;;;;;;;10.00;4.13;;;9.20;65.70;;;;;;5076270;28;20255;-67
2024/02/16 08:06:08;;;;;;;7.38;4.47;;;9.40;66.20;;;;;;5075904;28;20696;-67
2024/02/16 08:08:37;;;;;;;7.05;3.88;;;9.50;66.20;;;;;;5075785;28;20232;-67
2024/02/16 08:11:04;;;;;;;7.75;4.43;;;9.70;65.90;;;;;;5075775;28;20679;-67
2024/02/16 08:13:32;;;;;;;8.50;5.60;;;9.70;65.50;;;;;;5075893;28;20198;-67
2024/02/16 08:16:06;;;;;;;6.28;4.57;;;9.90;65.60;;;;;;5075933;28;20588;-67
2024/02/16 08:18:35;;;;;;;6.03;4.32;;;10.20;64.20;;;;;;5075653;28;20200;-67
2024/02/16 08:21:04;;;;;;;6.72;3.85;;;10.50;62.40;;;;;;5075296;28;20194;-67
2024/02/16 08:23:31;;;;;;;7.30;4.20;;;10.70;60.40;;;;;;5075546;28;20594;-68
2024/02/16 08:25:58;;;;;;;7.80;4.82;;;10.80;60.80;;;;;;5075554;28;20248;-67
2024/02/16 08:28:25;;;;;;;7.80;4.22;;;10.80;59.80;;;;;;5075696;28;20194;-67
2024/02/16 08:30:52;;;;;;;8.77;4.38;;;11.00;59.90;;;;;;5073795;28;20222;-67
2024/02/16 08:33:19;;;;;;;5.35;2.50;;;11.50;60.20;;;;;;5074447;28;20197;-67
2024/02/16 08:35:48;;;;;;;6.05;2.90;;;12.20;60.00;;;;;;5075196;28;20201;-68
2024/02/16 08:38:18;;;;;;;4.95;3.28;;;13.10;59.20;;;;;;5075833;28;20231;-68
2024/02/16 08:40:51;;;;;;;5.27;3.10;;;13.90;57.70;;;;;;5075695;28;20270;-68
2024/02/16 08:43:19;;;;;;;6.17;3.40;;;14.80;56.60;;;;;;5074477;28;20431;-68
2024/02/16 08:45:46;;;;;;;7.20;3.30;;;15.50;53.40;;;;;;5074761;28;20803;-68
2024/02/16 08:48:13;;;;;;;5.40;3.40;;;16.20;52.80;;;;;;5075643;28;20467;-68
2024/02/16 08:50:44;;;;;;;6.77;3.03;;;16.80;50.40;;;;;;5075571;28;20472;-68
2024/02/16 08:53:11;;;;;;;4.87;2.43;;;17.40;49.40;;;;;;5075508;28;20520;-68
2024/02/16 08:55:40;;;;;;;5.97;3.60;;;17.90;45.80;;;;;;5075136;28;20793;-68
2024/02/16 08:58:08;;;;;;;6.90;2.70;;;18.30;46.20;;;;;;5075230;28;20426;-69
2024/02/16 09:00:36;;;;;;;4.70;2.63;;;18.80;45.80;;;;;;5075455;28;20451;-69
2024/02/16 09:03:03;;;;;;;5.27;2.87;;;19.30;45.50;;;;;;5075225;28;20858;-69
2024/02/16 09:05:35;;;;;;;7.03;2.40;;;19.80;44.20;;;;;;5075283;28;20488;-69
2024/02/16 09:08:06;;;;;;;3.70;2.10;;;20.20;44.30;;;;;;5075233;28;20460;-69
2024/02/16 09:10:34;;;;;;;3.67;2.37;;;20.60;42.60;;;;;;5074892;28;20465;-69
2024/02/16 09:13:06;;;;;;;3.37;2.33;;;21.00;41.20;;;;;;5075270;28;20752;-69
2024/02/16 09:15:33;;;;;;;7.20;2.00;;;21.40;42.20;;;;;;5074572;28;20428;-69
2024/02/16 09:18:00;;;;;;;3.50;2.23;;;21.80;40.50;;;;;;5074764;28;20472;-69
2024/02/16 09:20:29;;;;;;;4.37;2.17;;;22.20;40.20;;;;;;5074713;28;20527;-69
2024/02/16 09:22:56;;;;;;;5.60;2.80;;;22.40;37.20;;;;;;5074677;28;20497;-69
2024/02/16 09:25:25;;;;;;;4.97;2.50;;;22.70;37.40;;;;;;5075152;28;20435;-69
2024/02/16 09:27:52;;;;;;;3.70;2.03;;;23.10;37.40;;;;;;5074925;28;20464;-69
2024/02/16 09:30:21;;;;;;;3.23;1.83;;;23.50;35.90;;;;;;5074846;28;20548;-69
2024/02/16 09:32:55;;;;;;;3.60;1.73;;;23.80;34.00;;;;;;5074652;28;20444;-70
2024/02/16 09:35:24;;;;;;;4.60;1.57;;;24.20;33.60;;;;;;5074375;28;20432;-69
2024/02/16 09:37:51;;;;;;;3.00;1.43;;;24.60;31.70;;;;;;5074737;28;20482;-69
2024/02/16 09:40:18;;;;;;;6.17;1.67;;;25.00;29.80;;;;;;5074539;28;20841;-69
2024/02/16 09:42:50;;;;;;;2.37;1.10;;;25.20;28.90;;;;;;5074156;28;20471;-69
2024/02/16 09:45:24;;;;;;;2.63;1.23;;;25.60;29.20;;;;;;5074271;28;20427;-69
2024/02/16 09:47:52;;;;;;;2.53;1.17;;;26.00;28.10;;;;;;5074686;28;20459;-67
2024/02/16 09:50:20;;;;;;;4.00;0.97;;;26.40;27.80;;;;;;5073988;28;20476;-67
2024/02/16 09:52:49;;;;;;;2.43;1.03;;;26.80;25.70;;;;;;5074379;28;20498;-69
2024/02/16 09:55:17;;;;;;;2.37;1.13;;;26.90;24.70;;;;;;5074075;28;20466;-69
2024/02/16 09:57:48;;;;;;;3.13;1.50;;;27.10;25.60;;;;;;5074217;28;20485;-68
2024/02/16 10:00:15;;;;;;;5.23;1.40;;;27.30;25.70;;;;;;5072135;28;20523;-71
2024/02/16 10:02:49;;;;;;;3.70;1.13;;;27.50;24.80;;;;;;5073035;28;20828;-68
2024/02/16 10:05:17;;;;;;;3.23;1.30;;;27.60;22.80;;;;;;5089959;28;20793;-68
2024/02/16 10:07:44;;;;;;;3.50;1.30;;;27.50;22.90;;;;;;5094222;28;20850;-68
2024/02/16 10:10:22;;;;;;;2.80;1.40;;;27.40;23.40;;;;;;5092377;28;20494;-68
2024/02/16 10:12:49;;;;;;;4.73;1.30;;;27.60;23.20;;;;;;5094158;28;20781;-68
2024/02/16 10:15:22;;;;;;;4.10;1.33;;;27.70;23.50;;;;;;5093980;28;20523;-68
2024/02/16 10:18:00;;;;;;;3.77;1.27;;;28.10;23.70;;;;;;5094128;28;20823;-68
2024/02/16 10:20:30;;;;;;;3.97;1.17;;;28.20;22.20;;;;;;5093065;28;20463;-68
2024/02/16 10:23:07;;;;;;;2.80;1.20;;;28.20;22.90;;;;;;5093972;28;20450;-68
2024/02/16 10:25:43;;;;;;;2.37;1.20;;;28.40;22.50;;;;;;5093222;28;20978;-68
2024/02/16 10:28:13;;;;;;;4.47;1.40;;;28.40;21.70;;;;;;5094220;28;20415;-67
2024/02/16 10:30:42;;;;;;;3.50;1.07;;;28.50;21.90;;;;;;5086982;28;20488;-68
2024/02/16 10:33:12;;;;;;;3.13;1.07;;;28.70;22.10;;;;;;5073526;28;20431;-68
2024/02/16 10:35:39;;;;;;;2.50;1.20;;;29.00;22.10;;;;;;5073096;28;20923;-68
2024/02/16 10:38:10;;;;;;;7.13;1.20;;;29.20;21.20;;;;;;5072989;28;20432;-68
2024/02/16 10:40:39;;;;;;;3.40;1.40;;;29.40;21.10;;;;;;5073125;28;20496;-68
2024/02/16 10:43:07;;;;;;;3.50;1.10;;;29.50;20.80;;;;;;5073658;28;20456;-67
2024/02/16 10:45:36;;;;;;;2.33;1.00;;;29.80;21.30;;;;;;5073591;28;20442;-67
2024/02/16 10:48:04;;;;;;;2.73;1.30;;;30.10;21.20;;;;;;5073441;28;20436;-68
2024/02/16 10:50:36;;;;;;;2.93;1.20;;;30.40;21.00;;;;;;5073427;28;20436;-69
2024/02/16 10:53:10;;;;;;;2.67;1.10;;;30.70;21.30;;;;;;5073522;28;20473;-68
2024/02/16 10:55:37;;;;;;;3.80;1.10;;;30.90;21.10;;;;;;5073379;28;20432;-68
2024/02/16 10:58:04;;;;;;;3.63;1.17;;;31.00;20.80;;;;;;5072961;28;20440;-68
2024/02/16 11:00:31;;;;;;;3.03;1.20;;;31.10;21.40;;;;;;5073098;28;20511;-68
2024/02/16 11:03:00;;;;;;;2.90;1.17;;;31.10;21.30;;;;;;5073001;28;20553;-68
2024/02/16 11:05:36;;;;;;;3.30;1.00;;;31.10;21.30;;;;;;5073272;28;20435;-68
2024/02/16 11:08:04;;;;;;;2.87;1.10;;;31.20;21.10;;;;;;5072871;28;20463;-68
2024/02/16 11:10:32;;;;;;;4.47;1.50;;;31.40;20.50;;;;;;5072951;28;20519;-68
2024/02/16 11:13:05;;;;;;;4.07;1.57;;;31.40;20.90;;;;;;5073259;28;20424;-68
2024/02/16 11:15:33;;;;;;;2.43;1.00;;;31.60;21.00;;;;;;5073375;28;20434;-68
2024/02/16 11:18:02;;;;;;;2.50;1.00;;;31.80;20.60;;;;;;5073210;28;20467;-68
2024/02/16 11:20:29;;;;;;;2.87;0.80;;;31.90;20.80;;;;;;5073297;28;20478;-68
2024/02/16 11:23:09;;;;;;;4.03;1.83;;;32.10;20.80;;;;;;5073318;28;20467;-68
2024/02/16 11:25:38;;;;;;;3.20;1.27;;;32.30;20.30;;;;;;5073088;28;20511;-69
2024/02/16 11:28:05;;;;;;;3.90;1.33;;;32.50;20.10;;;;;;5072629;28;20428;-68
2024/02/16 11:30:35;;;;;;;2.77;1.20;;;32.60;19.70;;;;;;5073034;28;20487;-68
2024/02/16 11:33:05;;;;;;;2.87;1.40;;;32.80;19.90;;;;;;5072854;28;20428;-68
2024/02/16 11:35:32;;;;;;;2.40;1.00;;;33.00;20.10;;;;;;5073009;28;20906;-68
2024/02/16 11:37:59;;;;;;;2.47;0.97;;;33.20;19.30;;;;;;5073022;28;20436;-68
2024/02/16 11:40:27;;;;;;;2.53;0.90;;;33.30;19.50;;;;;;5072890;28;20541;-69
2024/02/16 11:43:00;;;;;;;3.10;1.40;;;33.50;19.00;;;;;;5072504;28;20456;-68
2024/02/16 11:45:27;;;;;;;2.80;1.03;;;33.70;18.60;;;;;;5072742;28;20464;-68
2024/02/16 11:48:06;;;;;;;3.23;0.90;;;33.80;18.30;;;;;;5072557;28;20464;-68
2024/02/16 11:50:33;;;;;;;4.50;1.60;;;33.90;18.20;;;;;;5072593;28;20905;-68
2024/02/16 11:53:04;;;;;;;3.20;1.50;;;33.80;18.60;;;;;;5072472;28;20490;-67
2024/02/16 11:55:34;;;;;;;3.03;1.20;;;33.60;17.80;;;;;;5072468;28;20946;-67
2024/02/16 11:58:02;;;;;;;2.80;1.00;;;33.30;17.80;;;;;;5072540;28;20481;-68
2024/02/16 12:00:29;;;;;;;3.27;1.20;;;33.30;18.20;;;;;;5072382;28;20498;-68
2024/02/16 12:03:02;;;;;;;3.53;1.33;;;33.30;18.00;;;;;;5072500;28;20467;-68
2024/02/16 12:05:29;;;;;;;3.10;1.20;;;33.30;17.70;;;;;;5072346;28;20458;-68
2024/02/16 12:07:59;;;;;;;3.63;1.10;;;33.40;17.40;;;;;;5073402;28;20442;-68
2024/02/16 12:10:27;;;;;;;3.03;0.90;;;33.40;17.40;;;;;;5076330;28;20432;-68
2024/02/16 12:12:55;;;;;;;5.40;1.43;;;33.30;17.30;;;;;;5076035;28;20431;-68
2024/02/16 12:15:23;;;;;;;3.60;1.27;;;33.40;17.80;;;;;;5076297;28;20518;-68
2024/02/16 12:18:11;;;;;;;4.73;1.40;;;33.60;17.70;;;;;;5075386;28;20832;-68
2024/02/16 12:20:37;;;;;;;3.90;1.47;;;33.50;17.10;;;;;;5075776;28;20957;-68
2024/02/16 12:23:12;;;;;;;4.00;1.40;;;33.00;17.20;;;;;;5076025;28;20515;-68
2024/02/16 12:25:39;;;;;;;2.77;1.20;;;32.20;17.50;;;;;;5075727;28;20966;-68
2024/02/16 12:28:08;;;;;;;2.90;1.00;;;31.40;17.50;;;;;;5075936;28;20460;-68
2024/02/16 12:30:36;;;;;;;3.17;0.97;;;30.60;18.10;;;;;;5072692;28;20508;-68
2024/02/16 12:33:04;;;;;;;4.50;1.30;;;29.80;19.20;;;;;;5092797;28;20470;-68
2024/02/16 12:35:31;;;;;;;4.47;1.40;;;29.00;19.70;;;;;;5095766;28;20897;-68
2024/02/16 12:37:58;;;;;;;4.27;0.90;;;28.40;20.40;;;;;;5095713;28;20526;-68
2024/02/16 12:40:25;;;;;;;3.70;1.23;;;27.80;20.50;;;;;;5095994;28;20531;-68
2024/02/16 12:42:53;;;;;;;4.43;1.20;;;27.30;21.30;;;;;;5094325;28;20482;-68
2024/02/16 12:45:22;;;;;;;8.63;1.23;;;26.80;21.80;;;;;;5075710;28;20432;-69
2024/02/16 12:47:50;;;;;;;2.90;1.00;;;26.30;22.40;;;;;;5075666;28;20431;-69
2024/02/16 12:50:18;;;;;;;3.97;1.10;;;26.00;23.10;;;;;;5075496;28;20442;-68
2024/02/16 12:52:45;;;;;;;3.53;1.03;;;25.60;23.20;;;;;;5075223;28;20451;-68
2024/02/16 12:55:15;;;;;;;2.43;1.13;;;25.20;23.80;;;;;;5075448;28;20518;-69
2024/02/16 12:57:42;;;;;;;7.37;1.50;;;25.00;24.20;;;;;;5075200;28;20507;-69
2024/02/16 13:00:16;;;;;;;3.10;1.23;;;24.70;24.50;;;;;;5074352;28;20436;-67